sensor_id;sensor_type;location;lat;lon;timestamp;temperature;humidity
5196;DHT22;2617;51.006;12.436;2023-06-26T00:02:35;19.40;99.90
5196;DHT22;2617;51.006;12.436;2023-06-26T00:07:37;19.30;99.90
5196;DHT22;2617;51.006;12.436;2023-06-26T00:12:41;19.20;99.90
5196;DHT22;2617;51.006;12.436;2023-06-26T00:17:43;19.10;99.90
5196;DHT22;2617;51.006;12.436;2023-06-26T00:22:46;19.10;99.90
5196;DHT22;2617;51.006;12.436;2023-06-26T00:27:48;19.00;99.90
5196;DHT22;2617;51.006;12.436;2023-06-26T00:32:51;18.80;99.90
5196;DHT22;2617;51.006;12.436;2023-06-26T00:37:54;18.70;99.90
5196;DHT22;2617;51.006;12.436;2023-06-26T00:42:56;18.60;99.90
5196;DHT22;2617;51.006;12.436;2023-06-26T00:47:58;18.50;99.90
5196;DHT22;2617;51.006;12.436;2023-06-26T00:53:01;18.40;99.90
5196;DHT22;2617;51.006;12.436;2023-06-26T00:58:04;18.20;99.90
5196;DHT22;2617;51.006;12.436;2023-06-26T01:03:06;18.20;99.90
5196;DHT22;2617;51.006;12.436;2023-06-26T01:08:09;18.10;99.90
5196;DHT22;2617;51.006;12.436;2023-06-26T01:13:13;17.90;99.90
5196;DHT22;2617;51.006;12.436;2023-06-26T01:18:15;17.90;99.90
5196;DHT22;2617;51.006;12.436;2023-06-26T01:23:37;17.80;99.90
5196;DHT22;2617;51.006;12.436;2023-06-26T01:28:51;17.70;99.90
5196;DHT22;2617;51.006;12.436;2023-06-26T01:33:53;17.60;99.90
5196;DHT22;2617;51.006;12.436;2023-06-26T01:38:57;17.50;99.90
5196;DHT22;2617;51.006;12.436;2023-06-26T01:44:17;17.50;99.90
5196;DHT22;2617;51.006;12.436;2023-06-26T01:49:21;17.30;99.90
5196;DHT22;2617;51.006;12.436;2023-06-26T01:54:22;17.30;99.90
5196;DHT22;2617;51.006;12.436;2023-06-26T01:59:24;17.30;99.90
5196;DHT22;2617;51.006;12.436;2023-06-26T02:04:27;17.20;99.90
5196;DHT22;2617;51.006;12.436;2023-06-26T02:09:29;17.20;99.90
5196;DHT22;2617;51.006;12.436;2023-06-26T02:14:32;17.10;99.90
5196;DHT22;2617;51.006;12.436;2023-06-26T02:19:34;17.00;99.90
5196;DHT22;2617;51.006;12.436;2023-06-26T02:24:36;16.90;99.90
5196;DHT22;2617;51.006;12.436;2023-06-26T02:29:40;16.80;99.90
5196;DHT22;2617;51.006;12.436;2023-06-26T02:34:43;16.80;99.90
5196;DHT22;2617;51.006;12.436;2023-06-26T02:39:46;16.80;99.90
5196;DHT22;2617;51.006;12.436;2023-06-26T02:44:48;16.70;99.90
5196;DHT22;2617;51.006;12.436;2023-06-26T02:49:51;16.70;99.90
5196;DHT22;2617;51.006;12.436;2023-06-26T02:54:53;16.60;99.90
5196;DHT22;2617;51.006;12.436;2023-06-26T02:59:55;16.50;99.90
5196;DHT22;2617;51.006;12.436;2023-06-26T03:04:59;16.40;99.90
5196;DHT22;2617;51.006;12.436;2023-06-26T03:10:01;16.40;99.90
5196;DHT22;2617;51.006;12.436;2023-06-26T03:15:04;16.50;99.90
5196;DHT22;2617;51.006;12.436;2023-06-26T03:20:07;16.80;99.90
5196;DHT22;2617;51.006;12.436;2023-06-26T03:25:11;18.80;99.90
5196;DHT22;2617;51.006;12.436;2023-06-26T03:30:14;18.80;99.90
5196;DHT22;2617;51.006;12.436;2023-06-26T03:35:16;19.90;99.90
5196;DHT22;2617;51.006;12.436;2023-06-26T03:40:19;21.00;99.90
5196;DHT22;2617;51.006;12.436;2023-06-26T03:45:21;22.00;99.90
5196;DHT22;2617;51.006;12.436;2023-06-26T03:50:23;23.20;99.90
5196;DHT22;2617;51.006;12.436;2023-06-26T03:55:26;24.30;99.90
5196;DHT22;2617;51.006;12.436;2023-06-26T04:00:28;25.30;99.90
5196;DHT22;2617;51.006;12.436;2023-06-26T04:05:31;26.50;97.40
5196;DHT22;2617;51.006;12.436;2023-06-26T04:10:33;27.50;95.00
5196;DHT22;2617;51.006;12.436;2023-06-26T04:15:35;28.30;92.70
5196;DHT22;2617;51.006;12.436;2023-06-26T04:20:39;29.00;90.80
5196;DHT22;2617;51.006;12.436;2023-06-26T04:25:42;29.50;87.80
5196;DHT22;2617;51.006;12.436;2023-06-26T04:30:45;30.60;82.10
5196;DHT22;2617;51.006;12.436;2023-06-26T04:35:48;30.60;82.00
5196;DHT22;2617;51.006;12.436;2023-06-26T04:40:50;31.00;79.80
5196;DHT22;2617;51.006;12.436;2023-06-26T04:45:53;31.50;77.50
5196;DHT22;2617;51.006;12.436;2023-06-26T04:50:56;31.90;73.70
5196;DHT22;2617;51.006;12.436;2023-06-26T04:55:58;31.90;73.70
5196;DHT22;2617;51.006;12.436;2023-06-26T05:01:01;31.50;72.80
5196;DHT22;2617;51.006;12.436;2023-06-26T05:06:04;31.50;72.70
5196;DHT22;2617;51.006;12.436;2023-06-26T05:11:06;31.50;72.70
5196;DHT22;2617;51.006;12.436;2023-06-26T05:16:09;31.30;73.20
5196;DHT22;2617;51.006;12.436;2023-06-26T05:21:13;31.20;73.80
5196;DHT22;2617;51.006;12.436;2023-06-26T05:26:16;30.80;74.60
5196;DHT22;2617;51.006;12.436;2023-06-26T05:31:19;30.30;76.10
5196;DHT22;2617;51.006;12.436;2023-06-26T05:36:21;29.60;78.20
5196;DHT22;2617;51.006;12.436;2023-06-26T05:41:24;28.80;80.70
5196;DHT22;2617;51.006;12.436;2023-06-26T05:46:26;27.70;83.90
5196;DHT22;2617;51.006;12.436;2023-06-26T05:51:29;26.60;87.40
5196;DHT22;2617;51.006;12.436;2023-06-26T05:56:32;25.80;90.70
5196;DHT22;2617;51.006;12.436;2023-06-26T06:01:34;25.00;92.50
5196;DHT22;2617;51.006;12.436;2023-06-26T06:06:37;24.00;97.20
5196;DHT22;2617;51.006;12.436;2023-06-26T06:11:40;24.00;97.20
5196;DHT22;2617;51.006;12.436;2023-06-26T06:16:43;24.00;98.50
5196;DHT22;2617;51.006;12.436;2023-06-26T06:21:46;23.80;99.80
5196;DHT22;2617;51.006;12.436;2023-06-26T06:26:49;24.20;99.90
5196;DHT22;2617;51.006;12.436;2023-06-26T06:31:51;24.10;99.90
5196;DHT22;2617;51.006;12.436;2023-06-26T06:36:55;24.70;99.90
5196;DHT22;2617;51.006;12.436;2023-06-26T06:41:57;24.70;99.90
5196;DHT22;2617;51.006;12.436;2023-06-26T06:46:59;25.00;98.70
5196;DHT22;2617;51.006;12.436;2023-06-26T06:52:02;25.10;99.00
5196;DHT22;2617;51.006;12.436;2023-06-26T06:57:05;25.30;98.70
5196;DHT22;2617;51.006;12.436;2023-06-26T07:02:08;25.90;97.50
5196;DHT22;2617;51.006;12.436;2023-06-26T07:07:11;25.90;97.40
5196;DHT22;2617;51.006;12.436;2023-06-26T07:12:14;26.30;95.10
5196;DHT22;2617;51.006;12.436;2023-06-26T07:17:16;26.30;95.00
5196;DHT22;2617;51.006;12.436;2023-06-26T07:22:19;26.60;94.30
5196;DHT22;2617;51.006;12.436;2023-06-26T07:27:21;26.70;94.30
5196;DHT22;2617;51.006;12.436;2023-06-26T07:32:23;26.80;93.50
5196;DHT22;2617;51.006;12.436;2023-06-26T07:37:27;27.20;93.30
5196;DHT22;2617;51.006;12.436;2023-06-26T07:42:30;27.50;93.60
5196;DHT22;2617;51.006;12.436;2023-06-26T07:47:32;27.50;93.60
5196;DHT22;2617;51.006;12.436;2023-06-26T07:52:36;27.70;93.10
5196;DHT22;2617;51.006;12.436;2023-06-26T07:57:38;28.30;92.80
5196;DHT22;2617;51.006;12.436;2023-06-26T08:02:40;28.30;92.70
5196;DHT22;2617;51.006;12.436;2023-06-26T08:07:43;28.50;91.80
5196;DHT22;2617;51.006;12.436;2023-06-26T08:12:45;28.70;91.90
5196;DHT22;2617;51.006;12.436;2023-06-26T08:17:48;28.90;92.40
5196;DHT22;2617;51.006;12.436;2023-06-26T08:22:50;29.20;91.10
5196;DHT22;2617;51.006;12.436;2023-06-26T08:27:53;29.60;89.50
5196;DHT22;2617;51.006;12.436;2023-06-26T08:32:56;29.50;89.30
5196;DHT22;2617;51.006;12.436;2023-06-26T08:37:58;29.80;88.40
5196;DHT22;2617;51.006;12.436;2023-06-26T08:43:01;29.90;87.90
5196;DHT22;2617;51.006;12.436;2023-06-26T08:48:03;30.20;86.80
5196;DHT22;2617;51.006;12.436;2023-06-26T08:53:21;30.30;84.00
5196;DHT22;2617;51.006;12.436;2023-06-26T08:58:29;30.30;83.30
5196;DHT22;2617;51.006;12.436;2023-06-26T09:03:32;30.30;81.40
5196;DHT22;2617;51.006;12.436;2023-06-26T09:08:34;30.50;80.50
5196;DHT22;2617;51.006;12.436;2023-06-26T09:13:37;30.80;80.30
5196;DHT22;2617;51.006;12.436;2023-06-26T09:18:40;31.00;77.00
5196;DHT22;2617;51.006;12.436;2023-06-26T09:23:43;31.20;76.30
5196;DHT22;2617;51.006;12.436;2023-06-26T09:28:47;31.20;76.20
5196;DHT22;2617;51.006;12.436;2023-06-26T09:33:50;31.30;78.40
5196;DHT22;2617;51.006;12.436;2023-06-26T09:38:52;31.50;76.80
5196;DHT22;2617;51.006;12.436;2023-06-26T09:43:56;31.70;73.10
5196;DHT22;2617;51.006;12.436;2023-06-26T09:49:03;31.70;72.60
5196;DHT22;2617;51.006;12.436;2023-06-26T09:54:07;31.80;72.90
5196;DHT22;2617;51.006;12.436;2023-06-26T09:59:10;32.00;71.60
5196;DHT22;2617;51.006;12.436;2023-06-26T10:04:13;32.00;67.70
5196;DHT22;2617;51.006;12.436;2023-06-26T10:09:16;32.00;67.70
5196;DHT22;2617;51.006;12.436;2023-06-26T10:14:19;31.90;70.00
5196;DHT22;2617;51.006;12.436;2023-06-26T10:19:21;32.10;70.30
5196;DHT22;2617;51.006;12.436;2023-06-26T10:24:24;32.30;67.20
5196;DHT22;2617;51.006;12.436;2023-06-26T10:29:27;32.50;64.20
5196;DHT22;2617;51.006;12.436;2023-06-26T10:34:30;32.40;64.10
5196;DHT22;2617;51.006;12.436;2023-06-26T10:44:48;32.70;63.20
5196;DHT22;2617;51.006;12.436;2023-06-26T10:49:50;32.70;64.10
5196;DHT22;2617;51.006;12.436;2023-06-26T10:54:54;32.80;64.60
5196;DHT22;2617;51.006;12.436;2023-06-26T11:00:11;33.10;63.60
5196;DHT22;2617;51.006;12.436;2023-06-26T11:05:22;33.10;61.20
5196;DHT22;2617;51.006;12.436;2023-06-26T11:10:17;33.30;62.00
5196;DHT22;2617;51.006;12.436;2023-06-26T11:15:19;33.60;60.40
5196;DHT22;2617;51.006;12.436;2023-06-26T11:20:23;33.70;55.50
5196;DHT22;2617;51.006;12.436;2023-06-26T11:25:25;33.70;57.80
5196;DHT22;2617;51.006;12.436;2023-06-26T11:30:28;33.70;55.60
5196;DHT22;2617;51.006;12.436;2023-06-26T11:35:30;33.70;55.60
5196;DHT22;2617;51.006;12.436;2023-06-26T11:40:33;33.70;55.20
5196;DHT22;2617;51.006;12.436;2023-06-26T11:45:36;33.80;55.60
5196;DHT22;2617;51.006;12.436;2023-06-26T11:50:39;34.00;54.40
5196;DHT22;2617;51.006;12.436;2023-06-26T11:55:41;33.90;54.60
5196;DHT22;2617;51.006;12.436;2023-06-26T12:00:44;33.90;54.50
5196;DHT22;2617;51.006;12.436;2023-06-26T12:05:47;34.00;51.00
5196;DHT22;2617;51.006;12.436;2023-06-26T12:10:50;34.20;51.40
5196;DHT22;2617;51.006;12.436;2023-06-26T12:15:53;34.00;49.50
5196;DHT22;2617;51.006;12.436;2023-06-26T12:20:55;34.10;51.80
5196;DHT22;2617;51.006;12.436;2023-06-26T12:25:58;34.40;53.10
5196;DHT22;2617;51.006;12.436;2023-06-26T12:31:12;34.50;51.20
5196;DHT22;2617;51.006;12.436;2023-06-26T12:36:19;34.20;51.40
5196;DHT22;2617;51.006;12.436;2023-06-26T12:41:24;34.20;51.40
5196;DHT22;2617;51.006;12.436;2023-06-26T12:46:33;34.50;51.90
5196;DHT22;2617;51.006;12.436;2023-06-26T12:51:36;34.60;50.30
5196;DHT22;2617;51.006;12.436;2023-06-26T12:56:39;34.50;50.70
5196;DHT22;2617;51.006;12.436;2023-06-26T13:01:41;34.60;50.40
5196;DHT22;2617;51.006;12.436;2023-06-26T13:06:44;34.60;50.40
5196;DHT22;2617;51.006;12.436;2023-06-26T13:11:47;34.40;49.80
5196;DHT22;2617;51.006;12.436;2023-06-26T13:16:49;34.60;51.10
5196;DHT22;2617;51.006;12.436;2023-06-26T13:21:52;34.60;50.50
5196;DHT22;2617;51.006;12.436;2023-06-26T13:26:54;34.80;49.70
5196;DHT22;2617;51.006;12.436;2023-06-26T13:31:57;34.70;50.10
5196;DHT22;2617;51.006;12.436;2023-06-26T13:36:59;34.90;50.90
5196;DHT22;2617;51.006;12.436;2023-06-26T13:42:02;34.90;49.80
5196;DHT22;2617;51.006;12.436;2023-06-26T13:47:06;35.30;51.00
5196;DHT22;2617;51.006;12.436;2023-06-26T13:52:09;35.20;51.00
5196;DHT22;2617;51.006;12.436;2023-06-26T13:57:13;35.40;50.20
5196;DHT22;2617;51.006;12.436;2023-06-26T14:02:16;35.20;50.40
5196;DHT22;2617;51.006;12.436;2023-06-26T14:07:19;35.30;49.70
5196;DHT22;2617;51.006;12.436;2023-06-26T14:12:22;35.00;50.00
5196;DHT22;2617;51.006;12.436;2023-06-26T14:17:24;34.90;50.10
5196;DHT22;2617;51.006;12.436;2023-06-26T14:22:27;34.30;50.90
5196;DHT22;2617;51.006;12.436;2023-06-26T14:27:30;33.50;53.20
5196;DHT22;2617;51.006;12.436;2023-06-26T14:32:33;33.70;52.70
5196;DHT22;2617;51.006;12.436;2023-06-26T14:37:37;33.40;52.00
5196;DHT22;2617;51.006;12.436;2023-06-26T14:42:39;33.40;52.40
5196;DHT22;2617;51.006;12.436;2023-06-26T14:47:42;32.50;54.80
5196;DHT22;2617;51.006;12.436;2023-06-26T14:52:45;30.20;66.80
5196;DHT22;2617;51.006;12.436;2023-06-26T14:57:48;28.20;87.20
5196;DHT22;2617;51.006;12.436;2023-06-26T15:02:52;27.00;99.90
5196;DHT22;2617;51.006;12.436;2023-06-26T15:07:55;25.70;99.90
5196;DHT22;2617;51.006;12.436;2023-06-26T15:12:57;25.60;99.90
5196;DHT22;2617;51.006;12.436;2023-06-26T15:18:01;24.60;99.90
5196;DHT22;2617;51.006;12.436;2023-06-26T15:23:03;24.60;99.90
5196;DHT22;2617;51.006;12.436;2023-06-26T15:28:07;25.20;99.90
5196;DHT22;2617;51.006;12.436;2023-06-26T15:33:10;25.70;99.90
5196;DHT22;2617;51.006;12.436;2023-06-26T15:38:13;25.60;99.90
5196;DHT22;2617;51.006;12.436;2023-06-26T15:43:16;25.60;99.90
5196;DHT22;2617;51.006;12.436;2023-06-26T15:48:22;25.50;99.90
5196;DHT22;2617;51.006;12.436;2023-06-26T15:53:34;25.50;99.90
5196;DHT22;2617;51.006;12.436;2023-06-26T15:58:40;25.50;99.90
5196;DHT22;2617;51.006;12.436;2023-06-26T16:03:44;25.20;99.90
5196;DHT22;2617;51.006;12.436;2023-06-26T16:08:51;24.80;99.90
5196;DHT22;2617;51.006;12.436;2023-06-26T16:14:02;24.30;99.90
5196;DHT22;2617;51.006;12.436;2023-06-26T16:19:05;24.30;99.90
5196;DHT22;2617;51.006;12.436;2023-06-26T16:24:11;24.00;99.90
5196;DHT22;2617;51.006;12.436;2023-06-26T16:29:14;24.00;99.90
5196;DHT22;2617;51.006;12.436;2023-06-26T16:34:17;23.90;99.90
5196;DHT22;2617;51.006;12.436;2023-06-26T16:39:21;23.90;99.90
5196;DHT22;2617;51.006;12.436;2023-06-26T16:44:24;23.70;99.90
5196;DHT22;2617;51.006;12.436;2023-06-26T16:49:27;23.50;99.90
5196;DHT22;2617;51.006;12.436;2023-06-26T16:54:30;23.30;99.90
5196;DHT22;2617;51.006;12.436;2023-06-26T16:59:32;23.10;99.90
5196;DHT22;2617;51.006;12.436;2023-06-26T17:04:35;22.80;99.90
5196;DHT22;2617;51.006;12.436;2023-06-26T17:09:38;22.60;99.90
5196;DHT22;2617;51.006;12.436;2023-06-26T17:14:40;22.50;99.90
5196;DHT22;2617;51.006;12.436;2023-06-26T17:19:43;22.50;99.90
5196;DHT22;2617;51.006;12.436;2023-06-26T17:24:45;22.50;99.90
5196;DHT22;2617;51.006;12.436;2023-06-26T17:29:47;22.50;99.90
5196;DHT22;2617;51.006;12.436;2023-06-26T17:34:50;22.50;99.90
5196;DHT22;2617;51.006;12.436;2023-06-26T17:39:53;22.50;99.90
5196;DHT22;2617;51.006;12.436;2023-06-26T17:44:55;22.50;99.90
5196;DHT22;2617;51.006;12.436;2023-06-26T17:49:58;22.50;99.90
5196;DHT22;2617;51.006;12.436;2023-06-26T17:55:00;22.40;99.90
5196;DHT22;2617;51.006;12.436;2023-06-26T18:00:03;22.40;99.90
5196;DHT22;2617;51.006;12.436;2023-06-26T18:05:06;22.40;99.90
5196;DHT22;2617;51.006;12.436;2023-06-26T18:10:09;22.30;99.90
5196;DHT22;2617;51.006;12.436;2023-06-26T18:15:12;22.20;99.90
5196;DHT22;2617;51.006;12.436;2023-06-26T18:20:16;22.20;99.90
5196;DHT22;2617;51.006;12.436;2023-06-26T18:25:18;22.10;99.90
5196;DHT22;2617;51.006;12.436;2023-06-26T18:30:20;22.20;99.90
5196;DHT22;2617;51.006;12.436;2023-06-26T18:35:23;22.10;99.90
5196;DHT22;2617;51.006;12.436;2023-06-26T18:40:25;22.10;99.90
5196;DHT22;2617;51.006;12.436;2023-06-26T18:45:28;22.10;99.90
5196;DHT22;2617;51.006;12.436;2023-06-26T18:50:30;22.00;99.90
5196;DHT22;2617;51.006;12.436;2023-06-26T18:55:33;21.90;99.90
5196;DHT22;2617;51.006;12.436;2023-06-26T19:00:35;21.90;99.90
5196;DHT22;2617;51.006;12.436;2023-06-26T19:05:38;21.80;99.90
5196;DHT22;2617;51.006;12.436;2023-06-26T19:10:40;21.70;99.90
5196;DHT22;2617;51.006;12.436;2023-06-26T19:15:42;21.60;99.90
5196;DHT22;2617;51.006;12.436;2023-06-26T19:20:45;21.60;99.90
5196;DHT22;2617;51.006;12.436;2023-06-26T19:25:47;21.50;99.90
5196;DHT22;2617;51.006;12.436;2023-06-26T19:30:50;21.50;99.90
5196;DHT22;2617;51.006;12.436;2023-06-26T19:35:53;21.40;99.90
5196;DHT22;2617;51.006;12.436;2023-06-26T19:40:56;21.40;99.90
5196;DHT22;2617;51.006;12.436;2023-06-26T19:45:58;21.30;99.90
5196;DHT22;2617;51.006;12.436;2023-06-26T19:51:01;21.20;99.90
5196;DHT22;2617;51.006;12.436;2023-06-26T19:56:04;21.00;99.90
5196;DHT22;2617;51.006;12.436;2023-06-26T20:01:07;21.00;99.90
5196;DHT22;2617;51.006;12.436;2023-06-26T20:06:09;21.00;99.90
5196;DHT22;2617;51.006;12.436;2023-06-26T20:11:11;21.00;99.90
5196;DHT22;2617;51.006;12.436;2023-06-26T20:16:14;20.90;99.90
5196;DHT22;2617;51.006;12.436;2023-06-26T20:21:16;20.80;99.90
5196;DHT22;2617;51.006;12.436;2023-06-26T20:26:19;20.70;99.90
5196;DHT22;2617;51.006;12.436;2023-06-26T20:31:21;20.60;99.90
5196;DHT22;2617;51.006;12.436;2023-06-26T20:36:25;20.50;99.90
5196;DHT22;2617;51.006;12.436;2023-06-26T20:41:28;20.60;99.90
5196;DHT22;2617;51.006;12.436;2023-06-26T20:46:30;20.50;99.90
5196;DHT22;2617;51.006;12.436;2023-06-26T20:51:33;20.50;99.90
5196;DHT22;2617;51.006;12.436;2023-06-26T20:56:36;20.40;99.90
5196;DHT22;2617;51.006;12.436;2023-06-26T21:01:38;20.40;99.90
5196;DHT22;2617;51.006;12.436;2023-06-26T21:06:40;20.30;99.90
5196;DHT22;2617;51.006;12.436;2023-06-26T21:11:43;20.20;99.90
5196;DHT22;2617;51.006;12.436;2023-06-26T21:16:46;20.10;99.90
5196;DHT22;2617;51.006;12.436;2023-06-26T21:21:49;20.10;99.90
5196;DHT22;2617;51.006;12.436;2023-06-26T21:26:52;20.00;99.90
5196;DHT22;2617;51.006;12.436;2023-06-26T21:31:55;20.00;99.90
5196;DHT22;2617;51.006;12.436;2023-06-26T21:36:58;20.00;99.90
5196;DHT22;2617;51.006;12.436;2023-06-26T21:42:00;19.90;99.90
5196;DHT22;2617;51.006;12.436;2023-06-26T21:47:03;19.80;99.90
5196;DHT22;2617;51.006;12.436;2023-06-26T21:52:06;19.60;99.90
5196;DHT22;2617;51.006;12.436;2023-06-26T21:57:10;19.60;99.90
5196;DHT22;2617;51.006;12.436;2023-06-26T22:02:12;19.60;99.90
5196;DHT22;2617;51.006;12.436;2023-06-26T22:07:14;19.50;99.90
5196;DHT22;2617;51.006;12.436;2023-06-26T22:12:17;19.40;99.90
5196;DHT22;2617;51.006;12.436;2023-06-26T22:17:19;19.30;99.90
5196;DHT22;2617;51.006;12.436;2023-06-26T22:22:22;19.20;99.90
5196;DHT22;2617;51.006;12.436;2023-06-26T22:27:24;19.10;99.90
5196;DHT22;2617;51.006;12.436;2023-06-26T22:32:27;19.00;99.90
5196;DHT22;2617;51.006;12.436;2023-06-26T22:37:29;18.90;99.90
5196;DHT22;2617;51.006;12.436;2023-06-26T22:42:32;18.70;99.90
5196;DHT22;2617;51.006;12.436;2023-06-26T22:47:34;18.60;99.90
5196;DHT22;2617;51.006;12.436;2023-06-26T22:52:37;18.40;99.90
5196;DHT22;2617;51.006;12.436;2023-06-26T22:57:39;18.40;99.90
5196;DHT22;2617;51.006;12.436;2023-06-26T23:02:42;18.30;99.90
5196;DHT22;2617;51.006;12.436;2023-06-26T23:07:44;18.30;99.90
5196;DHT22;2617;51.006;12.436;2023-06-26T23:12:47;18.30;99.90
5196;DHT22;2617;51.006;12.436;2023-06-26T23:17:49;18.30;99.90
5196;DHT22;2617;51.006;12.436;2023-06-26T23:22:52;18.40;99.90
5196;DHT22;2617;51.006;12.436;2023-06-26T23:27:54;18.40;99.90
5196;DHT22;2617;51.006;12.436;2023-06-26T23:32:58;18.20;99.90
5196;DHT22;2617;51.006;12.436;2023-06-26T23:38:00;18.20;99.90
5196;DHT22;2617;51.006;12.436;2023-06-26T23:43:02;18.20;99.90
5196;DHT22;2617;51.006;12.436;2023-06-26T23:48:05;18.00;99.90
5196;DHT22;2617;51.006;12.436;2023-06-26T23:53:08;18.00;99.90
5196;DHT22;2617;51.006;12.436;2023-06-26T23:58:10;17.90;99.90
